Elmendorf AFB, Alaska
Current Conditions -  °F | °C
As of 7:58 AM on Tuesday 27 Jan 2015 (Local Time) from PAED Reporting Station
Overcast Overcast  
Wind Chill: -4°   Ceiling: 3400
Heat Index:   Visibility: 10mi
Dew Point:   Wind: 7mph
Humidity: 71%   Direction: 60°ENE
Pressure: 29.98"   Gusts: NA
Location:  61.24°N, 149.82°W
Report Text: PAED 271658Z 06006KT 10SM BKN034 OVC043 M14/M18 A2998 RMK AO2A SLP152 T11381180
Loading
Personal Weather Stations






























Interactive Weather Map New forecast layout! Learn more

10-Day Weather Forecast

Advertisements
Track Severe Weather on mobile